createdAt,value
2022-11-05T00:00:07.449Z,26.30
2022-11-05T00:05:30.729Z,26.40
2022-11-05T00:10:36.639Z,28.25
2022-11-05T00:15:57.707Z,27.55
2022-11-05T00:20:59.433Z,32.03
2022-11-05T00:26:03.471Z,29.85
2022-11-05T00:31:09.797Z,28.13
2022-11-05T00:36:11.805Z,34.20
2022-11-05T00:41:13.470Z,29.30
2022-11-05T00:46:15.210Z,24.70
2022-11-05T00:51:17.060Z,22.85
2022-11-05T00:56:18.743Z,28.45
2022-11-05T01:01:20.498Z,24.88
2022-11-05T01:06:22.238Z,28.00
2022-11-05T01:11:37.281Z,19.90
2022-11-05T01:16:40.592Z,23.25
2022-11-05T01:21:42.251Z,23.30
2022-11-05T01:26:43.897Z,24.98
2022-11-05T01:31:45.580Z,22.02
2022-11-05T01:36:47.261Z,25.65
2022-11-05T01:41:48.918Z,27.25
2022-11-05T01:46:50.939Z,21.40
2022-11-05T01:51:52.873Z,22.85
2022-11-05T01:57:04.041Z,26.92
2022-11-05T02:02:07.922Z,21.25
2022-11-05T02:07:11.035Z,21.63
2022-11-05T02:12:14.451Z,20.88
2022-11-05T02:17:48.121Z,21.70
2022-11-05T02:23:14.803Z,22.92
2022-11-05T02:28:30.034Z,22.08
2022-11-05T02:33:58.317Z,23.23
2022-11-05T02:39:13.397Z,21.27
2022-11-05T02:44:27.362Z,19.73
2022-11-05T02:49:48.182Z,20.55
2022-11-05T02:55:08.973Z,12.52
2022-11-05T03:00:35.368Z,12.82
2022-11-05T03:05:47.084Z,14.30
2022-11-05T03:11:17.727Z,18.35
2022-11-05T03:16:28.514Z,20.20
2022-11-05T03:21:36.269Z,16.58
2022-11-05T03:26:56.835Z,20.35
2022-11-05T03:32:02.430Z,24.40
2022-11-05T03:37:06.415Z,25.67
2022-11-05T03:42:13.273Z,32.28
2022-11-05T03:47:22.323Z,27.25
2022-11-05T03:52:28.260Z,27.75
2022-11-05T03:57:34.708Z,34.80
2022-11-05T04:02:38.516Z,32.35
2022-11-05T04:07:58.912Z,33.63
2022-11-05T04:13:19.254Z,40.15
2022-11-05T04:18:21.165Z,38.90
2022-11-05T04:23:41.246Z,38.80
2022-11-05T04:29:05.230Z,36.00
2022-11-05T04:34:09.529Z,31.92
2022-11-05T04:39:11.298Z,33.70
2022-11-05T04:44:12.971Z,34.72
2022-11-05T04:49:14.630Z,32.38
2022-11-05T04:54:16.287Z,38.50
2022-11-05T04:59:17.944Z,35.83
2022-11-05T05:04:20.704Z,33.22
2022-11-05T05:09:22.406Z,36.95
2022-11-05T05:14:24.071Z,40.33
2022-11-05T05:19:26.290Z,34.80
2022-11-05T05:24:27.939Z,35.50
2022-11-05T05:29:29.585Z,33.67
2022-11-05T05:34:31.256Z,34.50
2022-11-05T05:39:32.919Z,38.08
2022-11-05T05:44:34.559Z,31.23
2022-11-05T05:49:36.244Z,26.92
2022-11-05T05:54:42.493Z,33.08
2022-11-05T05:59:44.683Z,39.58
2022-11-05T06:04:46.345Z,41.63
2022-11-05T06:09:48.020Z,36.28
2022-11-05T06:14:49.674Z,28.90
2022-11-05T06:19:51.519Z,42.30
2022-11-05T06:24:53.175Z,33.13
2022-11-05T06:29:54.951Z,32.05
2022-11-05T06:34:56.888Z,35.53
2022-11-05T06:39:58.751Z,37.72
2022-11-05T06:45:00.453Z,33.42
2022-11-05T06:50:02.110Z,36.88
2022-11-05T06:55:04.394Z,27.67
2022-11-05T07:00:08.140Z,29.80
2022-11-05T07:05:13.373Z,25.77
2022-11-05T07:10:17.806Z,27.05
2022-11-05T07:15:19.463Z,35.85
2022-11-05T07:20:21.200Z,29.73
2022-11-05T07:25:22.875Z,25.67
2022-11-05T07:30:24.718Z,31.55
2022-11-05T07:35:27.855Z,26.23
2022-11-05T07:40:31.001Z,21.67
2022-11-05T07:45:32.889Z,24.15
2022-11-05T07:50:37.065Z,24.85
2022-11-05T07:55:40.899Z,35.85
2022-11-05T08:00:42.791Z,33.05
2022-11-05T08:05:46.725Z,24.30
2022-11-05T08:10:48.518Z,28.17
2022-11-05T08:15:51.378Z,24.92
2022-11-05T08:20:53.033Z,19.08
2022-11-05T08:25:55.743Z,24.27
2022-11-05T08:30:57.858Z,20.13
2022-11-05T08:36:03.134Z,22.02
2022-11-05T08:41:05.014Z,28.15
2022-11-05T08:46:06.678Z,26.02
2022-11-05T08:51:08.415Z,15.30
2022-11-05T08:56:10.118Z,24.70
2022-11-05T09:01:11.901Z,18.60
2022-11-05T09:06:14.578Z,20.88
2022-11-05T09:11:16.623Z,22.58
2022-11-05T09:16:21.556Z,13.65
2022-11-05T09:21:23.205Z,19.83
2022-11-05T09:26:24.907Z,26.70
2022-11-05T09:31:26.632Z,22.77
2022-11-05T09:36:28.319Z,20.60
2022-11-05T09:41:35.881Z,18.70
2022-11-05T09:46:45.808Z,16.23
2022-11-05T09:51:47.730Z,26.50
2022-11-05T09:56:49.593Z,28.70
2022-11-05T10:01:59.391Z,16.00
2022-11-05T10:07:06.170Z,13.05
2022-11-05T10:12:17.096Z,14.90
2022-11-05T10:17:27.909Z,17.75
2022-11-05T10:22:29.587Z,17.30
2022-11-05T10:27:36.484Z,19.58
2022-11-05T10:32:42.820Z,12.93
2022-11-05T10:37:46.774Z,13.82
2022-11-05T10:43:03.269Z,14.77
2022-11-05T10:48:13.812Z,18.10
2022-11-05T10:53:20.811Z,13.10
2022-11-05T10:58:29.015Z,13.85
2022-11-05T11:03:41.837Z,8.13
2022-11-05T11:08:46.319Z,10.57
2022-11-05T11:14:09.683Z,12.18
2022-11-05T11:19:34.164Z,19.15
2022-11-05T11:24:42.823Z,7.05
2022-11-05T11:29:50.064Z,10.10
2022-11-05T11:34:54.381Z,13.85
2022-11-05T11:40:02.155Z,8.27
2022-11-05T11:45:35.371Z,11.48
2022-11-05T11:50:43.143Z,12.10
2022-11-05T11:56:05.221Z,9.85
2022-11-05T12:01:09.569Z,11.40
2022-11-05T12:06:39.995Z,11.73
2022-11-05T12:11:54.881Z,10.95
2022-11-05T12:17:02.677Z,11.85
2022-11-05T12:22:22.446Z,16.27
2022-11-05T12:27:38.656Z,9.52
2022-11-05T12:33:09.660Z,14.55
2022-11-05T12:38:11.497Z,6.57
2022-11-05T12:43:32.112Z,10.65
2022-11-05T12:49:04.694Z,8.20
2022-11-05T12:54:23.511Z,10.48
2022-11-05T12:59:36.756Z,9.48
2022-11-05T13:05:01.486Z,11.77
2022-11-05T13:10:20.562Z,14.40
2022-11-05T13:15:29.585Z,8.82
2022-11-05T13:20:39.896Z,9.40
2022-11-05T13:25:51.697Z,9.13
2022-11-05T13:30:57.914Z,11.48
2022-11-05T13:36:22.727Z,10.52
2022-11-05T13:41:34.327Z,10.32
2022-11-05T13:47:03.029Z,14.52
2022-11-05T13:52:38.457Z,9.35
2022-11-05T13:58:36.813Z,10.30
2022-11-05T14:03:45.688Z,9.98
2022-11-05T14:08:47.935Z,13.65
2022-11-05T14:13:55.110Z,6.35
2022-11-05T14:19:18.354Z,10.60
2022-11-05T14:24:22.831Z,10.95
2022-11-05T14:29:24.925Z,11.50
2022-11-05T14:34:45.750Z,5.15
2022-11-05T14:39:47.959Z,11.27
2022-11-05T14:45:34.218Z,7.32
2022-11-05T14:50:39.945Z,5.57
2022-11-05T14:55:43.502Z,5.38
2022-11-05T15:00:47.538Z,5.22
2022-11-05T15:05:51.855Z,5.47
2022-11-05T15:10:56.824Z,5.25
2022-11-05T15:15:59.542Z,5.63
2022-11-05T15:21:03.418Z,10.30
2022-11-05T15:26:22.200Z,5.55
2022-11-05T15:31:26.930Z,9.75
2022-11-05T15:36:31.929Z,9.05
2022-11-05T15:41:34.645Z,5.32
2022-11-05T15:46:36.489Z,12.00
2022-11-05T15:51:38.200Z,8.70
2022-11-05T15:56:52.891Z,9.27
2022-11-05T16:02:21.071Z,11.30
2022-11-05T16:07:23.562Z,14.35
2022-11-05T16:12:32.449Z,15.52
2022-11-05T16:17:39.949Z,17.88
2022-11-05T16:22:46.808Z,14.15
2022-11-05T16:27:48.590Z,12.07
2022-11-05T16:32:50.637Z,13.05
2022-11-05T16:37:52.813Z,11.90
2022-11-05T16:42:55.217Z,19.17
2022-11-05T16:47:58.099Z,15.55
2022-11-05T16:52:59.786Z,9.30
2022-11-05T16:58:01.845Z,15.38
2022-11-05T17:03:04.226Z,14.48
2022-11-05T17:08:05.975Z,14.80
2022-11-05T17:13:19.646Z,7.80
2022-11-05T17:18:21.801Z,14.23
2022-11-05T17:23:26.802Z,23.40
2022-11-05T17:28:29.175Z,23.88
2022-11-05T17:33:31.333Z,34.25
2022-11-05T17:38:33.007Z,21.35
2022-11-05T17:43:34.671Z,29.27
2022-11-05T17:48:38.214Z,32.28
2022-11-05T17:53:39.867Z,24.35
2022-11-05T17:58:41.576Z,22.80
2022-11-05T18:03:43.227Z,23.45
2022-11-05T18:08:44.930Z,30.35
2022-11-05T18:13:46.870Z,25.85
2022-11-05T18:18:49.376Z,33.28
2022-11-05T18:23:51.070Z,41.10
2022-11-05T18:28:52.730Z,45.42
2022-11-05T18:33:59.416Z,41.35
2022-11-05T18:39:03.594Z,37.20
2022-11-05T18:44:05.577Z,39.47
2022-11-05T18:49:07.355Z,34.63
2022-11-05T18:54:09.095Z,34.90
2022-11-05T19:04:46.781Z,36.83
2022-11-05T19:09:56.914Z,29.05
2022-11-05T19:15:02.375Z,35.20
2022-11-05T19:20:05.507Z,31.30
2022-11-05T19:25:07.830Z,28.58
2022-11-05T19:30:10.142Z,33.30
2022-11-05T19:35:11.881Z,36.95
2022-11-05T19:40:13.663Z,32.03
2022-11-05T19:45:44.091Z,32.78
2022-11-05T19:50:42.878Z,34.85
2022-11-05T19:55:45.099Z,30.23
2022-11-05T20:00:46.852Z,31.10
2022-11-05T20:05:48.574Z,40.10
2022-11-05T20:10:54.633Z,33.17
2022-11-05T20:15:56.703Z,26.75
2022-11-05T20:21:04.031Z,31.20
2022-11-05T20:26:06.984Z,32.13
2022-11-05T20:31:11.226Z,24.60
2022-11-05T20:36:19.815Z,28.23
2022-11-05T20:41:21.981Z,23.05
2022-11-05T20:46:24.018Z,24.38
2022-11-05T20:51:25.678Z,26.10
2022-11-05T20:56:30.363Z,26.65
2022-11-05T21:01:33.721Z,26.92
2022-11-05T21:06:35.934Z,24.23
2022-11-05T21:11:56.142Z,27.20
2022-11-05T21:16:57.854Z,25.30
2022-11-05T21:21:59.810Z,27.35
2022-11-05T21:27:01.827Z,29.85
2022-11-05T21:32:03.910Z,31.33
2022-11-05T21:37:05.924Z,24.58
2022-11-05T21:42:07.666Z,25.02
2022-11-05T21:47:09.658Z,24.70
2022-11-05T21:52:30.665Z,22.83
2022-11-05T21:57:52.429Z,18.40
2022-11-05T22:02:54.289Z,22.35
2022-11-05T22:07:56.057Z,28.63
2022-11-05T22:12:57.882Z,26.00
2022-11-05T22:17:59.636Z,26.98
2022-11-05T22:23:01.303Z,23.55
2022-11-05T22:28:03.011Z,23.02
2022-11-05T22:33:04.712Z,24.63
2022-11-05T22:38:06.376Z,20.70
2022-11-05T22:43:08.041Z,21.02
2022-11-05T22:48:09.868Z,22.73
2022-11-05T22:53:11.821Z,16.95
2022-11-05T22:58:13.883Z,17.90
2022-11-05T23:03:15.856Z,16.33
2022-11-05T23:08:35.994Z,15.85
2022-11-05T23:13:37.662Z,18.73
2022-11-05T23:18:58.055Z,15.50
2022-11-05T23:24:05.585Z,15.35
2022-11-05T23:29:07.247Z,19.30
2022-11-05T23:34:08.898Z,19.58
2022-11-05T23:39:10.541Z,23.67
2022-11-05T23:44:30.648Z,17.20
2022-11-05T23:49:32.412Z,16.55
2022-11-05T23:54:34.134Z,18.15
2022-11-05T23:59:35.782Z,15.25
